ADDS METAR Data INFO
IDs: Format: Raw Decoded Include TAF

Data at: 2113 UTC 22 Oct 2017

KHZE 221515Z AUTO 22008KT 10SM CLR 07/M03 A2981 RMK AO2
KHZE 221455Z AUTO 24005KT 10SM CLR 04/M01 A2982 RMK AO2
KHZE 221435Z AUTO 00000KT 10SM CLR 01/M01 A2982 RMK AO2
KHZE 221415Z AUTO 27004KT 10SM CLR M00/M03 A2982 RMK AO2
KHZE 221355Z AUTO 25003KT 10SM CLR M04/M05 A2983 RMK AO2
KHZE 221335Z AUTO 00000KT 10SM CLR M05/M06 A2983 RMK AO2
KHZE 221315Z AUTO 00000KT 10SM CLR M05/M06 A2984 RMK AO2
KHZE 221255Z AUTO 00000KT 10SM CLR M05/M06 A2984 RMK AO2
KHZE 221235Z AUTO 00000KT 10SM CLR M06/M06 A2984 RMK AO2
KHZE 221215Z AUTO 00000KT 10SM CLR M04/M05 A2984 RMK AO2
KHZE 220435Z AUTO 25003KT 10SM FEW029 01/M02 A2982 RMK AO2
KHZE 220415Z AUTO 24005KT 10SM CLR 00/M02 A2982 RMK AO2
KHZE 220355Z AUTO 25004KT 10SM CLR 02/M01 A2982 RMK AO2
KHZE 220335Z AUTO 24005KT 10SM CLR 02/M00 A2982 RMK AO2
KHZE 220315Z AUTO 23007KT 10SM CLR 04/M00 A2982 RMK AO2
KHZE 220255Z AUTO 23005KT 10SM CLR 04/M00 A2981 RMK AO2
KHZE 220235Z AUTO 23008KT 10SM CLR 05/00 A2981 RMK AO2
KHZE 220215Z AUTO 23006KT 10SM CLR 05/00 A2980 RMK AO2
KHZE 220155Z AUTO 26006KT 10SM CLR 06/01 A2980 RMK AO2
KHZE 220135Z AUTO 29007KT 10SM FEW075 08/01 A2980 RMK AO2
KHZE 220115Z AUTO 30009KT 10SM BKN075 09/01 A2979 RMK AO2
KHZE 220055Z AUTO 30009KT 10SM OVC070 10/01 A2978 RMK AO2
KHZE 220035Z AUTO 30013G20KT 10SM OVC065 11/01 A2977 RMK AO2
KHZE 220015Z AUTO 29013KT 10SM OVC065 10/01 A2976 RMK AO2
KHZE 212355Z AUTO 29014KT 10SM OVC060 10/01 A2974 RMK AO2
KHZE 212335Z AUTO 29013G19KT 10SM SCT050 OVC055 10/01 A2974 RMK AO2
KHZE 212315Z AUTO 29017G23KT 10SM SCT044 BKN050 OVC055 10/02 A2972 RMK AO2
KHZE 212255Z AUTO 28012G20KT 10SM BKN044 OVC050 10/02 A2971 RMK AO2
KHZE 212235Z AUTO 29020G26KT 10SM SCT042 BKN048 OVC055 11/01 A2969 RMK AO2
KHZE 212215Z AUTO 30015G24KT 10SM BKN040 BKN046 OVC055 10/02 A2968 RMK AO2
KHZE 212155Z AUTO 30021G30KT 10SM FEW035 FEW040 OVC050 10/02 A2967 RMK AO2
KHZE 212135Z AUTO 30021G26KT 10SM BKN036 BKN043 OVC050 10/02 A2967 RMK AO2
KHZE 212115Z AUTO 28020G29KT 10SM BKN035 OVC041 10/03 A2967 RMK AO2
KHZE 212055Z AUTO 29018G29KT 10SM OVC034 10/02 A2966 RMK AO2
KHZE 212035Z AUTO 29022G31KT 10SM OVC034 10/03 A2965 RMK AO2
KHZE 212015Z AUTO 30018G29KT 10SM OVC033 10/03 A2964 RMK AO2
KHZE 211955Z AUTO 29018G28KT 10SM BKN030 OVC034 10/03 A2964 RMK AO2
KHZE 211935Z AUTO 29019G29KT 10SM OVC030 10/03 A2964 RMK AO2
KHZE 211915Z AUTO 29018G24KT 10SM OVC029 10/03 A2963 RMK AO2
KHZE 211855Z AUTO 28019G28KT 10SM OVC029 10/03 A2963 RMK AO2
KHZE 211835Z AUTO 28020G28KT 10SM OVC030 10/03 A2963 RMK AO2
KHZE 211815Z AUTO 28018G26KT 10SM OVC030 10/03 A2963 RMK AO2
KHZE 211755Z AUTO 29022KT 10SM OVC028 10/03 A2962 RMK AO2
KHZE 211735Z AUTO 28022G28KT 10SM OVC027 10/04 A2960 RMK AO2
KHZE 211715Z AUTO 28018KT 10SM OVC027 10/04 A2960 RMK AO2
KHZE 211655Z AUTO 29023G28KT 10SM OVC028 10/04 A2960 RMK AO2
KHZE 211635Z AUTO 28020KT 10SM BKN028 OVC033 10/04 A2959 RMK AO2
KHZE 211615Z AUTO 29021KT 7SM OVC029 10/04 A2958 RMK AO2
KHZE 211555Z AUTO 27017G23KT 10SM OVC029 10/04 A2958 RMK AO2
KHZE 211535Z AUTO 28014KT 10SM BKN030 10/03 A2958 RMK AO2
KHZE 211515Z AUTO 27017KT 10SM CLR 10/03 A2958 RMK AO2
KHZE 211455Z AUTO 27016KT 10SM CLR 09/03 A2958 RMK AO2
KHZE 211435Z AUTO 27018KT 10SM FEW090 09/03 A2957 RMK AO2
KHZE 211415Z AUTO 27012G21KT 10SM FEW070 BKN080 09/03 A2956 RMK AO2
KHZE 211355Z AUTO 27017KT 10SM OVC085 09/03 A2955 RMK AO2
KHZE 211335Z AUTO 27019KT 10SM SCT080 OVC090 10/03 A2954 RMK AO2
KHZE 211315Z AUTO 25018G24KT 10SM FEW080 BKN095 BKN120 10/03 A2953 RMK AO2
KHZE 211255Z AUTO 27017KT 10SM SCT110 10/03 A2951 RMK AO2
KHZE 211235Z AUTO 27020G26KT 10SM CLR 10/03 A2951 RMK AO2
KHZE 211215Z AUTO 27017G23KT 10SM CLR 09/03 A2949 RMK AO2
KHZE 211155Z AUTO 27016KT 10SM FEW035 09/03 A2949 RMK AO2
KHZE 211135Z AUTO 27014G22KT 10SM BKN035 10/03 A2948 RMK AO2
KHZE 211115Z AUTO 27019G25KT 10SM BKN034 BKN120 10/03 A2948 RMK AO2
KHZE 211055Z AUTO 26024KT 10SM FEW036 FEW120 10/03 A2946 RMK AO2
KHZE 211035Z AUTO 26023G28KT 10SM CLR 10/04 A2946 RMK AO2
KHZE 211015Z AUTO 26022G30KT 10SM CLR 10/04 A2945 RMK AO2
KHZE 210955Z AUTO 26018G28KT 10SM CLR 11/04 A2944 RMK AO2
KHZE 210935Z AUTO 26015G20KT 10SM CLR 12/02 A2942 RMK AO2
KHZE 210915Z AUTO 25010G16KT 10SM CLR 11/01 A2940 RMK AO2